Time;durP1;ratioP1;P1;durP2;ratioP2;P2;SDS_P1;SDS_P2;PMS_P1;PMS_P2;Temp;Humidity;BMP_temperature;BMP_pressure;BME280_temperature;BME280_humidity;BME280_pressure;Samples;Min_cycle;Max_cycle;Signal;HPM_P1;HPM_P2
2024/01/17 00:00:51;;;;;;;9.90;5.32;;;;;;;13.49;45.62;100248.84;4945843;29;20161;-40
2024/01/17 00:03:17;;;;;;;7.32;5.28;;;;;;;13.47;45.65;100241.03;4944473;29;20066;-41
2024/01/17 00:05:44;;;;;;;9.48;6.00;;;;;;;13.48;45.34;100239.19;4948068;28;20051;-41
2024/01/17 00:08:11;;;;;;;9.75;5.97;;;;;;;13.46;45.18;100233.16;4943394;29;20355;-40
2024/01/17 00:10:37;;;;;;;8.20;5.20;;;;;;;13.55;45.05;100235.84;4941795;29;20145;-40
2024/01/17 00:13:04;;;;;;;10.93;5.30;;;;;;;13.70;45.13;100240.72;4944297;28;20110;-41
2024/01/17 00:15:31;;;;;;;7.78;5.07;;;;;;;13.82;45.11;100232.44;4945331;28;20054;-40
2024/01/17 00:17:57;;;;;;;8.43;5.03;;;;;;;13.97;44.48;100235.53;4945231;29;20054;-41
2024/01/17 00:20:24;;;;;;;8.20;5.13;;;;;;;14.10;44.42;100219.25;4939524;29;20134;-41
2024/01/17 00:22:51;;;;;;;9.45;5.90;;;;;;;14.22;43.92;100220.75;4940796;29;20051;-41
2024/01/17 00:25:17;;;;;;;9.68;4.75;;;;;;;14.33;43.75;100212.59;4945026;28;20157;-41
2024/01/17 00:27:48;;;;;;;10.25;5.32;;;;;;;14.44;43.42;100208.94;4946770;29;20112;-40
2024/01/17 00:30:15;;;;;;;8.57;4.97;;;;;;;14.53;44.06;100197.41;4944358;29;20051;-41
2024/01/17 00:32:42;;;;;;;8.10;5.13;;;;;;;14.63;43.89;100191.19;4945464;29;20054;-39
2024/01/17 00:35:09;;;;;;;7.68;5.20;;;;;;;14.70;43.91;100187.78;4940859;29;20043;-40
2024/01/17 00:37:36;;;;;;;6.80;4.80;;;;;;;14.73;42.85;100181.31;4945811;29;20523;-39
2024/01/17 00:40:03;;;;;;;8.85;5.45;;;;;;;14.75;43.47;100179.34;4943310;28;20130;-40
2024/01/17 00:42:30;;;;;;;7.80;4.90;;;;;;;14.76;42.90;100181.88;4941958;29;20058;-40
2024/01/17 00:44:56;;;;;;;7.15;4.60;;;;;;;14.77;43.53;100172.03;4941874;28;20051;-41
2024/01/17 00:47:23;;;;;;;9.00;5.28;;;;;;;14.78;42.85;100182.53;4945297;28;20436;-40
2024/01/17 00:49:49;;;;;;;9.98;5.38;;;;;;;14.80;43.46;100188.59;4943677;28;20119;-41
2024/01/17 00:52:16;;;;;;;9.40;5.13;;;;;;;14.78;43.22;100184.38;4942358;29;20055;-41
2024/01/17 00:54:43;;;;;;;12.00;5.18;;;;;;;14.72;42.88;100183.16;4944546;29;20071;-41
2024/01/17 00:57:09;;;;;;;8.60;5.15;;;;;;;14.66;42.65;100174.88;4945492;28;20051;-41
2024/01/17 00:59:36;;;;;;;7.13;4.47;;;;;;;14.58;42.54;100170.28;4941522;29;20047;-42
2024/01/17 01:02:03;;;;;;;8.50;4.85;;;;;;;14.47;42.34;100162.44;4943680;29;20050;-41
2024/01/17 01:04:29;;;;;;;7.03;4.68;;;;;;;14.36;42.82;100152.00;4944927;28;20396;-41
2024/01/17 01:06:56;;;;;;;9.50;5.93;;;;;;;14.24;42.86;100144.19;4943325;29;20051;-41
2024/01/17 01:09:23;;;;;;;7.43;5.10;;;;;;;14.11;43.04;100135.69;4944326;28;20364;-40
2024/01/17 01:11:49;;;;;;;7.75;4.70;;;;;;;14.00;43.58;100136.69;4939984;29;20123;-41
2024/01/17 01:14:16;;;;;;;9.43;5.05;;;;;;;13.89;44.22;100133.34;4945629;29;20367;-42
2024/01/17 01:16:43;;;;;;;7.13;4.70;;;;;;;13.82;44.43;100135.72;4943068;28;20055;-42
2024/01/17 01:19:10;;;;;;;7.82;4.43;;;;;;;13.92;44.29;100136.56;4940401;29;20435;-41
2024/01/17 01:21:37;;;;;;;9.10;4.75;;;;;;;14.03;44.41;100132.88;4941870;28;20453;-42
2024/01/17 01:24:03;;;;;;;7.45;4.32;;;;;;;14.13;44.04;100130.19;4939645;29;20418;-42
2024/01/17 01:26:30;;;;;;;7.53;4.93;;;;;;;14.26;44.15;100138.69;4941757;28;20062;-41
2024/01/17 01:28:57;;;;;;;8.07;4.93;;;;;;;14.42;44.22;100130.06;4939878;28;20743;-42
2024/01/17 01:31:23;;;;;;;5.57;4.18;;;;;;;14.53;43.71;100122.75;4943886;28;20047;-41
2024/01/17 01:33:50;;;;;;;7.03;4.53;;;;;;;14.67;42.98;100120.56;4941265;29;20054;-42
2024/01/17 01:36:17;;;;;;;6.57;4.45;;;;;;;14.76;43.35;100107.19;4939195;29;20051;-42
2024/01/17 01:38:43;;;;;;;7.55;4.70;;;;;;;14.84;42.99;100105.59;4943525;29;20387;-42
2024/01/17 01:41:10;;;;;;;6.10;4.30;;;;;;;14.90;42.58;100096.97;4944938;29;20435;-40
2024/01/17 01:43:37;;;;;;;7.40;4.35;;;;;;;14.98;42.39;100105.06;4942576;29;20055;-42
2024/01/17 01:46:03;;;;;;;7.95;4.72;;;;;;;15.01;43.09;100094.09;4944608;29;20110;-41
2024/01/17 01:48:31;;;;;;;6.82;4.55;;;;;;;15.05;42.92;100098.13;4942572;28;20047;-40
2024/01/17 01:50:58;;;;;;;7.65;4.80;;;;;;;15.08;42.23;100100.50;4943838;28;20082;-40
2024/01/17 01:53:28;;;;;;;8.45;4.60;;;;;;;15.07;42.76;100093.44;4941535;29;20471;-41
2024/01/17 01:55:56;;;;;;;7.22;4.50;;;;;;;15.12;42.19;100091.19;4944323;29;20047;-41
2024/01/17 01:58:23;;;;;;;6.53;3.80;;;;;;;15.13;42.26;100094.69;4942480;29;20295;-41
2024/01/17 02:00:52;;;;;;;7.50;4.10;;;;;;;15.13;42.91;100092.03;4944429;29;20130;-41
2024/01/17 02:03:20;;;;;;;7.35;3.90;;;;;;;15.15;42.81;100087.34;4940698;29;20150;-40
2024/01/17 02:05:47;;;;;;;8.60;4.50;;;;;;;15.16;42.65;100076.53;4943332;28;20053;-41
2024/01/17 02:08:15;;;;;;;7.00;4.35;;;;;;;15.16;41.91;100071.22;4945125;29;20051;-40
2024/01/17 02:10:41;;;;;;;6.30;4.35;;;;;;;15.15;42.19;100071.34;4945568;28;20054;-41
2024/01/17 02:13:08;;;;;;;7.22;4.30;;;;;;;15.17;42.81;100069.38;4945009;28;20431;-41
2024/01/17 02:15:35;;;;;;;5.78;4.20;;;;;;;15.17;42.41;100072.88;4942109;29;20051;-41
2024/01/17 02:18:02;;;;;;;6.95;4.45;;;;;;;15.17;41.71;100062.19;4943918;29;20099;-42
2024/01/17 02:20:28;;;;;;;6.25;3.92;;;;;;;15.16;41.79;100057.88;4944664;28;20061;-41
2024/01/17 02:22:55;;;;;;;8.23;4.95;;;;;;;15.16;41.92;100054.34;4941188;28;20511;-42
2024/01/17 02:25:22;;;;;;;5.43;4.18;;;;;;;15.15;41.96;100047.31;4942337;29;20451;-42
2024/01/17 02:27:48;;;;;;;6.93;4.35;;;;;;;15.13;41.88;100035.97;4944041;29;20053;-40
2024/01/17 02:30:15;;;;;;;7.65;4.55;;;;;;;15.12;41.85;100032.47;4940727;29;20085;-42
2024/01/17 02:32:44;;;;;;;6.30;4.43;;;;;;;15.10;42.08;100029.09;4939561;28;20047;-41
2024/01/17 02:35:11;;;;;;;7.90;4.40;;;;;;;15.10;42.56;100025.59;4941237;29;20129;-42
2024/01/17 02:37:38;;;;;;;6.07;4.20;;;;;;;15.09;41.64;100016.75;4942430;29;20161;-41
2024/01/17 02:40:05;;;;;;;6.50;4.20;;;;;;;15.07;41.77;100010.72;4948343;29;20051;-42
2024/01/17 02:42:31;;;;;;;6.35;4.20;;;;;;;15.07;42.60;100005.38;4946813;29;20058;-41
2024/01/17 02:44:58;;;;;;;6.82;4.10;;;;;;;15.05;42.14;99999.38;4944053;29;20058;-42
2024/01/17 02:47:25;;;;;;;8.13;4.72;;;;;;;15.03;42.08;99991.53;4940744;29;20109;-42
2024/01/17 02:49:52;;;;;;;9.52;5.25;;;;;;;15.01;41.58;99982.00;4947915;28;20343;-41
2024/01/17 02:52:19;;;;;;;8.15;5.00;;;;;;;14.98;41.61;99977.81;4948398;29;20047;-41
2024/01/17 02:54:45;;;;;;;8.40;4.70;;;;;;;14.95;41.55;99977.28;4948964;29;20449;-42
2024/01/17 02:57:12;;;;;;;6.45;4.28;;;;;;;14.91;41.79;99970.56;4946968;29;20457;-41
2024/01/17 02:59:38;;;;;;;7.82;4.18;;;;;;;14.91;42.54;99963.41;4947338;29;20111;-41
2024/01/17 03:02:05;;;;;;;7.22;4.47;;;;;;;14.92;42.10;99961.59;4943111;29;20083;-41
2024/01/17 03:04:32;;;;;;;7.60;4.57;;;;;;;14.97;42.69;99953.97;4946523;28;20059;-40
2024/01/17 03:06:58;;;;;;;7.43;5.05;;;;;;;15.06;42.40;99958.34;4947689;29;20058;-41
2024/01/17 03:09:25;;;;;;;6.40;4.68;;;;;;;15.15;41.40;99948.56;4946290;29;20078;-41
2024/01/17 03:11:52;;;;;;;7.35;4.43;;;;;;;15.23;41.35;99952.13;4950087;29;20121;-41
2024/01/17 03:14:18;;;;;;;5.85;4.20;;;;;;;15.31;42.12;99944.16;4949487;28;20055;-41
2024/01/17 03:16:45;;;;;;;6.45;4.40;;;;;;;15.43;41.18;99938.56;4949698;29;20051;-39
2024/01/17 03:19:14;;;;;;;8.90;4.10;;;;;;;15.50;40.87;99940.44;4947913;29;20371;-41
2024/01/17 03:21:46;;;;;;;6.97;4.50;;;;;;;15.59;41.47;99935.97;4950242;28;20058;-42
2024/01/17 03:24:13;;;;;;;6.32;4.32;;;;;;;15.67;40.57;99929.84;4950500;28;20126;-42
2024/01/17 03:26:39;;;;;;;11.55;4.68;;;;;;;15.73;41.44;99929.22;4947902;29;20430;-42
2024/01/17 03:29:06;;;;;;;9.57;4.30;;;;;;;15.77;41.26;99927.91;4947772;28;20130;-42
2024/01/17 03:31:33;;;;;;;6.82;4.25;;;;;;;15.79;40.40;99923.22;4946553;28;20137;-41
2024/01/17 03:33:59;;;;;;;6.80;4.28;;;;;;;15.81;40.50;99926.59;4945996;29;20055;-40
2024/01/17 03:36:26;;;;;;;8.82;4.63;;;;;;;15.80;40.82;99924.94;4943979;28;20146;-41
2024/01/17 03:38:54;;;;;;;6.45;4.10;;;;;;;15.74;41.31;99914.88;4945556;29;20450;-40
2024/01/17 03:41:21;;;;;;;10.07;5.15;;;;;;;15.68;41.05;99912.84;4947124;29;20056;-41
2024/01/17 03:43:50;;;;;;;7.20;4.32;;;;;;;15.66;40.83;99906.81;4941591;29;20142;-41
2024/01/17 03:46:16;;;;;;;8.13;4.60;;;;;;;15.61;40.38;99895.75;4947109;29;20056;-41
2024/01/17 03:48:43;;;;;;;7.85;4.28;;;;;;;15.56;41.62;99880.22;4941797;28;20471;-41
2024/01/17 03:51:10;;;;;;;6.95;4.25;;;;;;;15.52;41.27;99884.22;4942166;28;20063;-41
2024/01/17 03:53:36;;;;;;;9.27;4.60;;;;;;;15.47;41.59;99879.31;4944776;28;20043;-41
2024/01/17 03:56:03;;;;;;;9.00;4.93;;;;;;;15.43;41.27;99877.97;4946916;29;20079;-39
2024/01/17 03:58:30;;;;;;;6.55;4.35;;;;;;;15.39;41.44;99870.44;4943847;29;20055;-41
2024/01/17 04:01:01;;;;;;;6.25;4.05;;;;;;;15.36;41.73;99873.47;4946661;28;20055;-41
2024/01/17 04:03:28;;;;;;;5.68;4.20;;;;;;;15.31;41.40;99863.22;4944772;28;20055;-41
2024/01/17 04:05:55;;;;;;;7.85;4.15;;;;;;;15.26;41.94;99842.38;4946044;28;20102;-41
2024/01/17 04:08:21;;;;;;;5.07;4.13;;;;;;;15.23;41.09;99842.69;4947517;28;20066;-41
2024/01/17 04:10:48;;;;;;;6.05;3.88;;;;;;;15.17;41.18;99834.50;4944420;29;20055;-42
2024/01/17 04:13:14;;;;;;;7.35;4.40;;;;;;;15.11;41.14;99829.78;4945899;28;20051;-39
2024/01/17 04:15:42;;;;;;;6.80;4.60;;;;;;;15.00;41.57;99820.22;4946175;28;20146;-41
2024/01/17 04:18:09;;;;;;;6.00;3.53;;;;;;;14.91;42.42;99814.00;4945360;28;20350;-41
2024/01/17 04:20:36;;;;;;;5.38;3.80;;;;;;;14.91;41.93;99810.50;4944276;29;20102;-41
2024/01/17 04:23:06;;;;;;;7.63;4.40;;;;;;;14.93;42.38;99805.84;4944928;29;20058;-40
2024/01/17 04:25:33;;;;;;;5.78;3.90;;;;;;;14.95;41.75;99794.00;4942090;29;20057;-41
2024/01/17 04:28:02;;;;;;;6.45;4.03;;;;;;;15.01;41.75;99784.53;4944275;28;20047;-40
2024/01/17 04:30:28;;;;;;;8.15;4.43;;;;;;;15.10;41.73;99786.25;4946711;28;20054;-41
2024/01/17 04:32:55;;;;;;;6.30;4.10;;;;;;;15.19;41.64;99771.09;4946174;28;20058;-41
2024/01/17 04:35:22;;;;;;;8.10;3.75;;;;;;;15.26;41.22;99772.97;4946478;29;20055;-41
2024/01/17 04:37:49;;;;;;;6.53;3.95;;;;;;;15.33;41.34;99767.81;4946709;29;20058;-40
2024/01/17 04:40:15;;;;;;;7.25;4.00;;;;;;;15.40;41.83;99776.03;4941520;29;20054;-41
2024/01/17 04:42:43;;;;;;;6.03;3.78;;;;;;;15.44;41.65;99780.88;4946094;28;20111;-41
2024/01/17 04:45:11;;;;;;;7.13;3.90;;;;;;;15.49;40.80;99772.38;4945774;29;20062;-41
2024/01/17 04:47:37;;;;;;;5.18;3.55;;;;;;;15.51;41.59;99757.00;4946803;28;20834;-41
2024/01/17 04:50:05;;;;;;;6.07;3.92;;;;;;;15.51;41.70;99754.34;4945940;29;20051;-41
2024/01/17 04:52:32;;;;;;;6.50;3.92;;;;;;;15.45;41.88;99752.34;4941893;28;20057;-41
2024/01/17 04:54:58;;;;;;;5.28;3.53;;;;;;;15.41;41.18;99741.13;4942667;29;20055;-40
2024/01/17 04:57:25;;;;;;;5.30;3.83;;;;;;;15.41;41.27;99734.97;4943800;29;20107;-41
2024/01/17 04:59:51;;;;;;;6.25;3.92;;;;;;;15.39;41.75;99739.63;4947187;29;20039;-39
2024/01/17 05:02:18;;;;;;;5.07;3.00;;;;;;;15.35;41.02;99744.44;4942742;28;20130;-42
2024/01/17 05:04:45;;;;;;;4.82;3.28;;;;;;;15.33;42.10;99745.63;4945565;29;20055;-40
2024/01/17 05:07:11;;;;;;;6.07;3.72;;;;;;;15.29;41.92;99737.09;4940171;29;20070;-40
2024/01/17 05:09:38;;;;;;;5.28;3.67;;;;;;;15.25;41.45;99733.91;4945355;29;20129;-41
2024/01/17 05:12:05;;;;;;;5.95;3.53;;;;;;;15.23;41.99;99733.22;4947255;29;20051;-41
2024/01/17 05:14:33;;;;;;;5.65;3.60;;;;;;;15.21;42.11;99721.06;4945796;28;20102;-41
2024/01/17 05:17:01;;;;;;;5.65;3.83;;;;;;;15.18;41.56;99716.88;4946855;29;20051;-41
2024/01/17 05:19:27;;;;;;;5.65;3.20;;;;;;;15.15;41.71;99703.84;4947335;28;20075;-41
2024/01/17 05:21:54;;;;;;;7.30;3.58;;;;;;;15.10;42.11;99687.50;4949689;29;20083;-40
2024/01/17 05:24:20;;;;;;;6.45;3.60;;;;;;;15.06;42.15;99691.50;4949484;28;20474;-41
2024/01/17 05:26:47;;;;;;;5.28;3.08;;;;;;;14.98;41.17;99680.78;4948529;29;20090;-40
2024/01/17 05:29:14;;;;;;;6.30;4.05;;;;;;;14.95;41.34;99678.44;4940081;28;20451;-41
2024/01/17 05:31:41;;;;;;;5.60;3.67;;;;;;;14.92;41.84;99674.28;4941831;29;20553;-41
2024/01/17 05:34:07;;;;;;;5.80;3.28;;;;;;;14.94;41.50;99661.59;4937135;29;20062;-41
2024/01/17 05:36:34;;;;;;;6.47;3.97;;;;;;;14.95;42.20;99652.59;4943238;28;20053;-39
2024/01/17 05:39:03;;;;;;;6.55;3.95;;;;;;;15.00;41.59;99652.13;4944585;29;20462;-41
2024/01/17 05:41:30;;;;;;;5.82;3.85;;;;;;;15.10;42.32;99646.63;4940673;29;20055;-40
2024/01/17 05:43:57;;;;;;;6.28;4.13;;;;;;;15.19;41.68;99662.50;4941660;29;20053;-40
2024/01/17 05:46:23;;;;;;;6.30;3.95;;;;;;;15.26;41.92;99655.50;4946019;29;20102;-42
2024/01/17 05:48:50;;;;;;;6.50;4.00;;;;;;;15.31;41.21;99647.81;4945134;29;20051;-41
2024/01/17 05:51:17;;;;;;;6.18;4.05;;;;;;;15.38;41.25;99652.53;4938871;29;20056;-40
2024/01/17 05:53:43;;;;;;;6.38;4.15;;;;;;;15.42;41.74;99654.69;4943995;29;20051;-40
2024/01/17 05:56:10;;;;;;;7.45;4.13;;;;;;;15.46;41.74;99649.84;4941651;29;20348;-41
2024/01/17 05:58:36;;;;;;;7.93;4.43;;;;;;;15.44;41.24;99646.53;4937309;29;20047;-41
2024/01/17 06:01:03;;;;;;;8.25;4.95;;;;;;;15.40;41.70;99638.03;4942811;28;20102;-43
2024/01/17 06:03:30;;;;;;;7.70;4.57;;;;;;;15.36;40.79;99638.53;4943564;29;20462;-39
2024/01/17 06:05:56;;;;;;;8.38;4.55;;;;;;;15.35;41.53;99620.81;4941535;29;20398;-41
2024/01/17 06:08:23;;;;;;;6.13;4.43;;;;;;;15.33;41.77;99614.81;4940839;29;20062;-40
2024/01/17 06:10:50;;;;;;;7.45;4.25;;;;;;;15.32;40.95;99616.66;4938952;29;20051;-41
2024/01/17 06:13:17;;;;;;;7.55;4.55;;;;;;;15.29;41.67;99617.81;4941996;28;20052;-41
2024/01/17 06:15:43;;;;;;;8.32;4.32;;;;;;;15.27;41.29;99617.13;4949605;28;20055;-40
2024/01/17 06:18:10;;;;;;;6.60;4.40;;;;;;;15.24;41.78;99609.47;4954478;29;20078;-41
2024/01/17 06:20:37;;;;;;;6.40;4.07;;;;;;;15.23;41.68;99609.63;4949016;28;20051;-43
2024/01/17 06:23:04;;;;;;;6.13;4.38;;;;;;;15.20;41.30;99604.63;4946757;29;20787;-40
2024/01/17 06:25:30;;;;;;;8.60;4.20;;;;;;;15.16;42.17;99597.97;4948526;29;20055;-40
2024/01/17 06:27:57;;;;;;;8.23;4.30;;;;;;;15.11;42.03;99600.25;4949274;29;20056;-41
2024/01/17 06:30:24;;;;;;;8.18;4.72;;;;;;;15.05;41.48;99601.78;4951175;28;20161;-41
2024/01/17 06:32:50;;;;;;;9.63;4.93;;;;;;;15.01;42.33;99608.44;4946623;28;20055;-41
2024/01/17 06:35:17;;;;;;;10.65;5.32;;;;;;;14.97;41.68;99612.44;4949059;28;20079;-41
2024/01/17 06:37:44;;;;;;;7.93;4.53;;;;;;;14.91;41.28;99603.22;4947720;28;20413;-40
2024/01/17 06:40:11;;;;;;;6.38;4.20;;;;;;;14.84;41.43;99590.72;4951544;29;20130;-40
2024/01/17 06:42:38;;;;;;;6.55;4.72;;;;;;;14.76;41.50;99589.72;4943198;28;20058;-39
2024/01/17 06:45:05;;;;;;;10.02;4.88;;;;;;;14.67;42.26;99582.66;4947201;28;20055;-41
2024/01/17 06:47:32;;;;;;;8.13;4.70;;;;;;;14.60;41.61;99580.84;4947505;28;20082;-38
2024/01/17 06:49:59;;;;;;;6.80;4.53;;;;;;;14.51;42.17;99578.16;4945528;29;20122;-40
2024/01/17 06:52:26;;;;;;;7.88;4.95;;;;;;;14.43;42.48;99574.56;4944258;28;20055;-39
2024/01/17 06:54:53;;;;;;;6.95;4.75;;;;;;;14.36;42.09;99573.56;4948338;29;20058;-38
2024/01/17 06:57:21;;;;;;;8.23;4.82;;;;;;;14.24;42.55;99563.19;4949559;29;20066;-39
2024/01/17 06:59:48;;;;;;;9.73;5.03;;;;;;;14.17;42.79;99566.63;4949810;28;20054;-39
2024/01/17 07:02:15;;;;;;;8.40;5.03;;;;;;;14.09;42.70;99562.09;4950036;28;20055;-39
2024/01/17 07:04:42;;;;;;;6.85;4.53;;;;;;;14.04;43.21;99556.44;4948342;28;20051;-39
2024/01/17 07:07:08;;;;;;;7.18;4.63;;;;;;;13.97;43.37;99547.41;4948898;28;20114;-40
2024/01/17 07:09:35;;;;;;;7.30;4.28;;;;;;;13.90;42.89;99549.84;4950318;29;20043;-40
2024/01/17 07:12:02;;;;;;;7.22;4.88;;;;;;;13.85;42.98;99546.84;4948830;29;20051;-40
2024/01/17 07:14:29;;;;;;;7.97;4.63;;;;;;;13.79;43.19;99550.97;4949529;29;20050;-38
2024/01/17 07:16:57;;;;;;;7.25;4.60;;;;;;;13.74;43.71;99553.25;4950965;29;20347;-40
2024/01/17 07:19:24;;;;;;;9.95;4.93;;;;;;;13.68;43.63;99555.72;4948346;28;20106;-40
2024/01/17 07:21:50;;;;;;;8.27;4.78;;;;;;;13.62;43.67;99557.16;4946762;29;20135;-40
2024/01/17 07:24:17;;;;;;;7.03;4.40;;;;;;;13.59;43.97;99557.50;4945713;29;20685;-38
2024/01/17 07:26:44;;;;;;;7.05;5.25;;;;;;;13.57;43.99;99551.47;4946518;28;20061;-40
2024/01/17 07:29:10;;;;;;;9.77;5.07;;;;;;;13.51;43.90;99550.28;4946306;29;20055;-41
2024/01/17 07:31:38;;;;;;;8.98;4.68;;;;;;;13.47;43.86;99551.59;4949910;28;20106;-39
2024/01/17 07:34:05;;;;;;;6.28;4.28;;;;;;;13.45;44.11;99545.56;4948965;29;20055;-41
2024/01/17 07:36:31;;;;;;;7.85;4.40;;;;;;;13.41;44.15;99541.56;4946781;29;20138;-37
2024/01/17 07:38:58;;;;;;;7.43;4.47;;;;;;;13.37;44.18;99542.84;4943030;28;20106;-40
2024/01/17 07:41:25;;;;;;;8.23;4.82;;;;;;;13.33;44.27;99536.19;4941545;29;20483;-41
2024/01/17 07:43:51;;;;;;;6.60;4.28;;;;;;;13.29;44.39;99543.63;4940307;29;20129;-40
2024/01/17 07:46:18;;;;;;;7.95;4.22;;;;;;;13.26;44.46;99538.63;4942688;29;20052;-38
2024/01/17 07:48:45;;;;;;;6.15;4.30;;;;;;;13.24;44.58;99537.13;4939622;29;20107;-41
2024/01/17 07:51:13;;;;;;;7.47;4.55;;;;;;;13.22;44.77;99534.56;4945972;29;20371;-40
2024/01/17 07:53:40;;;;;;;7.47;4.28;;;;;;;13.22;44.87;99528.41;4943855;28;20121;-40
2024/01/17 07:56:06;;;;;;;6.88;4.38;;;;;;;13.19;44.87;99518.94;4944505;29;20054;-41
2024/01/17 07:58:33;;;;;;;6.32;4.40;;;;;;;13.19;44.92;99518.94;4946343;28;20047;-40
2024/01/17 08:01:00;;;;;;;6.82;4.45;;;;;;;13.19;44.93;99507.47;4944876;29;20491;-41
2024/01/17 08:03:26;;;;;;;6.22;3.92;;;;;;;13.19;44.95;99510.13;4942047;29;20199;-41
2024/01/17 08:05:57;;;;;;;8.55;4.40;;;;;;;13.19;44.84;99494.97;4944347;29;20051;-38
2024/01/17 08:08:23;;;;;;;9.48;4.47;;;;;;;13.20;44.65;99499.31;4941534;28;20075;-39
2024/01/17 08:10:50;;;;;;;5.82;3.45;;;;;;;13.21;44.73;99494.81;4944499;29;20127;-41
2024/01/17 08:13:17;;;;;;;8.13;3.88;;;;;;;13.21;44.68;99489.50;4941015;29;20095;-40
2024/01/17 08:15:44;;;;;;;7.03;4.43;;;;;;;13.21;45.09;99489.50;4941959;29;20082;-40
2024/01/17 08:18:10;;;;;;;7.72;4.20;;;;;;;13.21;44.56;99487.66;4942873;28;20511;-39
2024/01/17 08:20:38;;;;;;;7.03;3.72;;;;;;;13.23;44.68;99479.59;4945854;29;20059;-41
2024/01/17 08:23:05;;;;;;;7.32;4.13;;;;;;;13.23;44.71;99477.75;4941922;29;20059;-40
2024/01/17 08:25:32;;;;;;;5.82;4.22;;;;;;;13.23;44.95;99472.44;4942114;28;20055;-40
2024/01/17 08:27:59;;;;;;;7.63;4.40;;;;;;;13.25;44.57;99464.28;4944567;28;20061;-42
2024/01/17 08:30:29;;;;;;;7.63;4.28;;;;;;;13.24;44.68;99455.47;4944731;29;20106;-41
2024/01/17 08:32:55;;;;;;;6.82;4.30;;;;;;;13.25;44.78;99457.13;4947342;28;20055;-40
2024/01/17 08:35:22;;;;;;;5.78;3.72;;;;;;;13.26;44.76;99455.31;4944974;28;20059;-42
2024/01/17 08:37:49;;;;;;;5.30;3.72;;;;;;;13.27;44.58;99449.84;4942404;29;20055;-42
2024/01/17 08:40:16;;;;;;;6.68;4.18;;;;;;;13.26;44.52;99450.81;4944512;28;20475;-41
2024/01/17 08:42:45;;;;;;;6.55;3.97;;;;;;;13.27;44.66;99451.66;4947123;28;20062;-41
2024/01/17 08:45:12;;;;;;;6.63;3.72;;;;;;;13.27;44.85;99447.19;4946668;29;20054;-41
2024/01/17 08:47:42;;;;;;;5.93;3.80;;;;;;;13.27;44.63;99447.19;4942617;29;20056;-41
2024/01/17 08:50:11;;;;;;;6.45;4.20;;;;;;;13.27;44.58;99441.84;4944579;29;20055;-37
2024/01/17 08:52:38;;;;;;;7.07;4.30;;;;;;;13.27;44.34;99449.84;4943954;29;20404;-40
2024/01/17 08:55:08;;;;;;;6.90;3.58;;;;;;;13.27;44.58;99431.22;4939930;29;20055;-39
2024/01/17 08:57:37;;;;;;;6.45;3.90;;;;;;;13.27;44.24;99428.56;4944143;28;20055;-40
2024/01/17 09:00:06;;;;;;;6.05;3.42;;;;;;;13.27;44.70;99436.53;4937768;29;20059;-40
2024/01/17 09:02:33;;;;;;;6.38;3.60;;;;;;;13.28;44.30;99432.88;4941132;29;20055;-41
2024/01/17 09:05:00;;;;;;;6.28;3.72;;;;;;;13.28;44.42;99432.03;4938260;28;20059;-39
2024/01/17 09:07:27;;;;;;;5.07;3.58;;;;;;;13.28;44.43;99416.91;4938394;29;20055;-40
2024/01/17 09:09:57;;;;;;;8.90;4.57;;;;;;;13.27;44.33;99423.22;4941421;29;20075;-37
2024/01/17 09:12:23;;;;;;;5.40;3.67;;;;;;;13.27;44.25;99423.22;4945382;29;20080;-40
2024/01/17 09:14:50;;;;;;;7.35;3.80;;;;;;;13.27;44.18;99425.91;4942939;29;20081;-40
2024/01/17 09:17:17;;;;;;;6.22;4.05;;;;;;;13.27;44.28;99414.41;4943873;29;20074;-40
2024/01/17 09:19:44;;;;;;;5.43;3.83;;;;;;;13.26;44.11;99408.25;4941845;28;20082;-38
2024/01/17 09:22:10;;;;;;;5.40;3.42;;;;;;;13.26;44.17;99400.25;4943938;29;20043;-40
2024/01/17 09:24:37;;;;;;;5.22;3.42;;;;;;;13.26;44.43;99392.28;4940521;28;20055;-38
2024/01/17 09:27:04;;;;;;;5.03;3.47;;;;;;;13.27;44.22;99387.81;4941666;29;20101;-40
2024/01/17 09:29:33;;;;;;;5.28;3.50;;;;;;;13.26;44.23;99384.28;4940325;28;20055;-37
2024/01/17 09:32:00;;;;;;;5.97;3.53;;;;;;;13.26;44.36;99376.31;4942236;29;20114;-38
2024/01/17 09:34:27;;;;;;;4.22;3.10;;;;;;;13.27;44.31;99377.16;4943203;28;20515;-40
2024/01/17 09:36:54;;;;;;;7.00;4.03;;;;;;;13.27;44.26;99385.97;4944218;28;20422;-39
2024/01/17 09:39:21;;;;;;;7.15;3.90;;;;;;;13.29;44.17;99383.16;4936350;29;20527;-41
2024/01/17 09:41:48;;;;;;;4.70;3.25;;;;;;;13.30;44.18;99379.50;4940905;29;20051;-41
2024/01/17 09:44:14;;;;;;;4.93;3.70;;;;;;;13.30;44.02;99384.81;4938230;29;20346;-41
2024/01/17 09:46:43;;;;;;;5.85;3.58;;;;;;;13.32;44.44;99393.50;4944098;29;20130;-39
2024/01/17 09:49:10;;;;;;;6.85;3.70;;;;;;;13.31;44.29;99384.69;4940029;28;20125;-40
2024/01/17 09:51:38;;;;;;;6.68;3.40;;;;;;;13.31;44.51;99390.00;4945327;28;20048;-39
2024/01/17 09:54:05;;;;;;;4.80;2.97;;;;;;;13.32;44.14;99386.34;4945610;29;20139;-38
2024/01/17 09:56:33;;;;;;;5.30;3.75;;;;;;;13.32;44.12;99378.34;4945003;28;20397;-40
2024/01/17 09:59:13;;;;;;;5.72;3.53;;;;;;;13.33;44.30;99377.34;4941706;29;20059;-41
2024/01/17 10:01:41;;;;;;;4.95;3.25;;;;;;;13.35;43.82;99369.22;4941655;29;20079;-40
2024/01/17 10:04:11;;;;;;;4.18;3.15;;;;;;;13.35;44.14;99361.25;4942374;29;20414;-41
2024/01/17 10:06:39;;;;;;;6.60;3.70;;;;;;;13.36;44.17;99368.22;4942815;29;20081;-41
2024/01/17 10:09:07;;;;;;;5.00;3.17;;;;;;;13.37;44.40;99371.72;4941166;29;20051;-40
2024/01/17 10:11:35;;;;;;;4.88;3.25;;;;;;;13.39;44.19;99375.03;4944330;29;20047;-40
2024/01/17 10:14:02;;;;;;;5.38;3.40;;;;;;;13.38;44.13;99366.22;4941860;29;20066;-41
2024/01/17 10:16:29;;;;;;;6.60;3.38;;;;;;;13.41;44.05;99365.09;4943475;29;20083;-41
2024/01/17 10:18:55;;;;;;;5.22;3.55;;;;;;;13.41;44.22;99359.75;4945251;28;20066;-41
2024/01/17 10:21:22;;;;;;;5.38;3.00;;;;;;;13.41;43.95;99357.94;4941040;28;20073;-41
2024/01/17 10:23:49;;;;;;;6.30;3.85;;;;;;;13.43;44.16;99349.81;4942079;28;20051;-41
2024/01/17 10:26:16;;;;;;;4.50;3.20;;;;;;;13.43;43.99;99344.47;4942210;28;20073;-40
2024/01/17 10:28:45;;;;;;;4.72;3.22;;;;;;;13.44;44.14;99341.66;4943604;28;20051;-40
2024/01/17 10:31:12;;;;;;;6.47;3.08;;;;;;;13.44;43.67;99336.31;4945588;28;20059;-41
2024/01/17 10:33:39;;;;;;;5.95;3.10;;;;;;;13.45;44.12;99330.00;4944331;29;20051;-42
2024/01/17 10:36:07;;;;;;;4.30;3.30;;;;;;;13.46;44.05;99330.81;4942012;29;20066;-40
2024/01/17 10:38:34;;;;;;;4.70;3.15;;;;;;;13.47;44.19;99327.19;4942235;29;20062;-40
2024/01/17 10:41:10;;;;;;;5.47;3.53;;;;;;;13.47;44.01;99324.53;4946987;28;20047;-40
2024/01/17 10:43:54;;;;;;;5.30;3.30;;;;;;;13.46;44.34;99320.19;4943777;29;20082;-41
2024/01/17 10:46:24;;;;;;;4.63;2.97;;;;;;;13.49;43.96;99311.88;4947935;29;20046;-41
2024/01/17 10:48:51;;;;;;;6.88;3.58;;;;;;;13.49;43.73;99314.53;4942201;29;20047;-40
2024/01/17 10:51:22;;;;;;;4.07;2.80;;;;;;;13.49;43.91;99315.38;4937373;29;20066;-42
2024/01/17 10:53:56;;;;;;;4.20;3.00;;;;;;;13.49;44.07;99310.06;4944654;29;20061;-41
2024/01/17 10:56:26;;;;;;;4.65;2.88;;;;;;;13.50;44.00;99306.38;4943105;28;20055;-40
2024/01/17 10:58:55;;;;;;;5.00;2.90;;;;;;;13.51;44.10;99299.25;4941641;29;20271;-41
2024/01/17 11:01:37;;;;;;;3.97;3.20;;;;;;;13.50;43.90;99297.56;4944629;28;20055;-39
2024/01/17 11:04:14;;;;;;;5.13;3.00;;;;;;;13.50;43.85;99290.41;4945355;29;20059;-42
2024/01/17 11:06:42;;;;;;;4.78;3.03;;;;;;;13.51;44.14;99294.78;4943769;29;20443;-41
2024/01/17 11:09:10;;;;;;;4.30;3.13;;;;;;;13.51;44.08;99284.13;4939971;29;20066;-41
2024/01/17 11:11:39;;;;;;;6.43;2.78;;;;;;;13.53;44.12;99278.63;4943175;28;20107;-41
2024/01/17 11:14:07;;;;;;;4.35;3.10;;;;;;;13.52;43.89;99279.63;4942274;28;20396;-40
2024/01/17 11:16:35;;;;;;;4.93;2.70;;;;;;;13.52;43.77;99275.13;4942921;29;20102;-40
2024/01/17 11:19:04;;;;;;;4.25;3.13;;;;;;;13.52;44.12;99283.13;4942858;28;20130;-40
2024/01/17 11:21:31;;;;;;;4.68;2.63;;;;;;;13.53;43.86;99275.97;4946634;28;20047;-39
2024/01/17 11:24:24;;;;;;;3.83;3.00;;;;;;;13.52;43.74;99268.97;4946875;29;20137;-41
2024/01/17 11:27:22;;;;;;;4.38;3.15;;;;;;;13.52;43.94;99253.00;4944216;29;20047;-41
2024/01/17 11:30:19;;;;;;;4.68;3.17;;;;;;;13.52;43.77;99255.69;4943228;28;20127;-40
2024/01/17 11:33:06;;;;;;;5.00;2.90;;;;;;;13.51;43.74;99254.84;4942747;29;20048;-40